sensor_id;sensor_type;location;lat;lon;timestamp;temperature;humidity
37868;DHT22;24011;48.880;9.190;2022-12-08T00:03:04;24.10;37.00
37868;DHT22;24011;48.880;9.190;2022-12-08T00:06:35;24.10;37.60
37868;DHT22;24011;48.880;9.190;2022-12-08T00:09:57;24.10;37.00
37868;DHT22;24011;48.880;9.190;2022-12-08T00:13:39;24.10;37.00
37868;DHT22;24011;48.880;9.190;2022-12-08T00:17:05;24.10;37.10
37868;DHT22;24011;48.880;9.190;2022-12-08T00:20:23;24.10;37.10
37868;DHT22;24011;48.880;9.190;2022-12-08T00:23:41;24.10;37.00
37868;DHT22;24011;48.880;9.190;2022-12-08T00:27:15;24.00;37.20
37868;DHT22;24011;48.880;9.190;2022-12-08T00:30:41;24.10;37.20
37868;DHT22;24011;48.880;9.190;2022-12-08T00:34:16;24.00;37.20
37868;DHT22;24011;48.880;9.190;2022-12-08T00:37:47;24.10;37.10
37868;DHT22;24011;48.880;9.190;2022-12-08T00:41:22;24.10;37.10
37868;DHT22;24011;48.880;9.190;2022-12-08T00:44:53;24.10;36.90
37868;DHT22;24011;48.880;9.190;2022-12-08T00:48:29;24.10;37.00
37868;DHT22;24011;48.880;9.190;2022-12-08T00:51:58;24.20;37.00
37868;DHT22;24011;48.880;9.190;2022-12-08T00:55:22;24.10;37.20
37868;DHT22;24011;48.880;9.190;2022-12-08T00:58:41;24.10;37.10
37868;DHT22;24011;48.880;9.190;2022-12-08T01:02:22;24.10;37.20
37868;DHT22;24011;48.880;9.190;2022-12-08T01:05:53;24.00;37.20
37868;DHT22;24011;48.880;9.190;2022-12-08T01:09:22;24.10;37.20
37868;DHT22;24011;48.880;9.190;2022-12-08T01:13:11;24.10;37.10
37868;DHT22;24011;48.880;9.190;2022-12-08T01:16:34;24.10;37.10
37868;DHT22;24011;48.880;9.190;2022-12-08T01:20:05;24.10;37.20
37868;DHT22;24011;48.880;9.190;2022-12-08T01:23:35;24.10;37.30
37868;DHT22;24011;48.880;9.190;2022-12-08T01:27:04;24.00;37.40
37868;DHT22;24011;48.880;9.190;2022-12-08T01:30:41;24.00;37.30
37868;DHT22;24011;48.880;9.190;2022-12-08T01:34:16;24.00;37.30
37868;DHT22;24011;48.880;9.190;2022-12-08T01:37:38;24.10;37.20
37868;DHT22;24011;48.880;9.190;2022-12-08T01:41:22;24.00;37.30
37868;DHT22;24011;48.880;9.190;2022-12-08T01:45:00;24.00;37.20
37868;DHT22;24011;48.880;9.190;2022-12-08T01:48:34;24.10;37.40
37868;DHT22;24011;48.880;9.190;2022-12-08T01:52:06;24.00;37.30
37868;DHT22;24011;48.880;9.190;2022-12-08T01:55:39;24.00;37.30
37868;DHT22;24011;48.880;9.190;2022-12-08T01:59:11;23.90;37.30
37868;DHT22;24011;48.880;9.190;2022-12-08T02:02:43;24.00;37.40
37868;DHT22;24011;48.880;9.190;2022-12-08T02:06:12;24.00;37.40
37868;DHT22;24011;48.880;9.190;2022-12-08T02:09:39;24.00;37.20
37868;DHT22;24011;48.880;9.190;2022-12-08T02:13:06;23.90;37.40
37868;DHT22;24011;48.880;9.190;2022-12-08T02:16:40;23.90;37.30
37868;DHT22;24011;48.880;9.190;2022-12-08T02:23:40;23.90;37.30
37868;DHT22;24011;48.880;9.190;2022-12-08T02:27:06;24.00;37.90
37868;DHT22;24011;48.880;9.190;2022-12-08T02:30:40;24.00;37.30
37868;DHT22;24011;48.880;9.190;2022-12-08T02:34:18;24.00;37.40
37868;DHT22;24011;48.880;9.190;2022-12-08T02:37:53;24.00;37.30
37868;DHT22;24011;48.880;9.190;2022-12-08T02:41:24;24.00;37.20
37868;DHT22;24011;48.880;9.190;2022-12-08T02:44:57;23.90;37.30
37868;DHT22;24011;48.880;9.190;2022-12-08T02:48:23;23.90;37.50
37868;DHT22;24011;48.880;9.190;2022-12-08T02:56:25;23.90;37.30
37868;DHT22;24011;48.880;9.190;2022-12-08T03:00:35;24.00;37.40
37868;DHT22;24011;48.880;9.190;2022-12-08T03:04:30;23.90;37.40
37868;DHT22;24011;48.880;9.190;2022-12-08T03:16:23;23.90;37.30
37868;DHT22;24011;48.880;9.190;2022-12-08T03:20:12;24.00;37.30
37868;DHT22;24011;48.880;9.190;2022-12-08T04:21:57;23.30;37.20
37868;DHT22;24011;48.880;9.190;2022-12-08T04:26:01;23.40;37.30
37868;DHT22;24011;48.880;9.190;2022-12-08T04:30:07;23.50;37.30
37868;DHT22;24011;48.880;9.190;2022-12-08T04:34:43;23.50;37.30
37868;DHT22;24011;48.880;9.190;2022-12-08T04:42:34;23.50;37.70
37868;DHT22;24011;48.880;9.190;2022-12-08T04:46:44;23.30;37.90
37868;DHT22;24011;48.880;9.190;2022-12-08T04:50:14;23.40;38.10
37868;DHT22;24011;48.880;9.190;2022-12-08T04:54:05;23.30;38.30
37868;DHT22;24011;48.880;9.190;2022-12-08T04:58:13;23.30;38.40
37868;DHT22;24011;48.880;9.190;2022-12-08T05:01:31;23.30;38.50
37868;DHT22;24011;48.880;9.190;2022-12-08T05:04:55;23.20;38.70
37868;DHT22;24011;48.880;9.190;2022-12-08T05:08:25;23.10;38.80
37868;DHT22;24011;48.880;9.190;2022-12-08T05:11:46;23.10;38.90
37868;DHT22;24011;48.880;9.190;2022-12-08T05:15:37;23.10;38.80
37868;DHT22;24011;48.880;9.190;2022-12-08T05:19:06;23.00;39.00
37868;DHT22;24011;48.880;9.190;2022-12-08T05:22:35;23.10;39.00
37868;DHT22;24011;48.880;9.190;2022-12-08T05:25:09;23.00;39.20
37868;DHT22;24011;48.880;9.190;2022-12-08T05:28:28;23.00;39.20
37868;DHT22;24011;48.880;9.190;2022-12-08T05:32:19;22.90;39.20
37868;DHT22;24011;48.880;9.190;2022-12-08T05:46:04;23.00;39.30
37868;DHT22;24011;48.880;9.190;2022-12-08T05:48:55;23.10;39.20
37868;DHT22;24011;48.880;9.190;2022-12-08T05:51:36;23.10;39.30
37868;DHT22;24011;48.880;9.190;2022-12-08T05:54:12;23.00;39.30
37868;DHT22;24011;48.880;9.190;2022-12-08T05:57:19;23.10;39.20
37868;DHT22;24011;48.880;9.190;2022-12-08T06:43:05;22.90;40.00
37868;DHT22;24011;48.880;9.190;2022-12-08T06:46:18;22.90;40.20
37868;DHT22;24011;48.880;9.190;2022-12-08T06:49:13;23.00;40.00
37868;DHT22;24011;48.880;9.190;2022-12-08T06:52:13;22.90;40.10
37868;DHT22;24011;48.880;9.190;2022-12-08T06:55:25;22.90;40.20
37868;DHT22;24011;48.880;9.190;2022-12-08T06:58:43;23.00;40.10
37868;DHT22;24011;48.880;9.190;2022-12-08T07:01:25;23.10;40.00
37868;DHT22;24011;48.880;9.190;2022-12-08T07:21:49;23.00;41.10
37868;DHT22;24011;48.880;9.190;2022-12-08T07:24:31;23.10;40.50
37868;DHT22;24011;48.880;9.190;2022-12-08T07:27:25;23.10;40.50
37868;DHT22;24011;48.880;9.190;2022-12-08T07:30:11;23.20;40.50
37868;DHT22;24011;48.880;9.190;2022-12-08T07:33:12;23.20;40.50
37868;DHT22;24011;48.880;9.190;2022-12-08T10:55:23;25.10;36.30
37868;DHT22;24011;48.880;9.190;2022-12-08T10:57:51;25.10;36.20
37868;DHT22;24011;48.880;9.190;2022-12-08T11:00:41;25.20;36.10
37868;DHT22;24011;48.880;9.190;2022-12-08T11:03:44;25.20;36.10
37868;DHT22;24011;48.880;9.190;2022-12-08T11:07:32;25.20;35.90
37868;DHT22;24011;48.880;9.190;2022-12-08T11:11:02;25.40;35.90
37868;DHT22;24011;48.880;9.190;2022-12-08T11:14:18;25.40;35.60
37868;DHT22;24011;48.880;9.190;2022-12-08T11:17:26;25.40;35.50
37868;DHT22;24011;48.880;9.190;2022-12-08T11:20:42;25.40;35.40
37868;DHT22;24011;48.880;9.190;2022-12-08T11:24:18;25.50;35.30
37868;DHT22;24011;48.880;9.190;2022-12-08T11:27:58;25.50;35.00
37868;DHT22;24011;48.880;9.190;2022-12-08T11:31:33;25.50;35.10
37868;DHT22;24011;48.880;9.190;2022-12-08T11:35:09;25.60;35.00
37868;DHT22;24011;48.880;9.190;2022-12-08T11:39:05;25.50;34.80
37868;DHT22;24011;48.880;9.190;2022-12-08T11:42:11;25.50;35.10
37868;DHT22;24011;48.880;9.190;2022-12-08T11:45:24;25.50;34.70
37868;DHT22;24011;48.880;9.190;2022-12-08T11:52:48;25.80;34.70
37868;DHT22;24011;48.880;9.190;2022-12-08T11:55:37;25.70;34.60
37868;DHT22;24011;48.880;9.190;2022-12-08T11:58:28;25.80;34.10
37868;DHT22;24011;48.880;9.190;2022-12-08T12:00:59;25.70;34.30
37868;DHT22;24011;48.880;9.190;2022-12-08T12:03:42;25.60;34.70
37868;DHT22;24011;48.880;9.190;2022-12-08T12:06:44;25.60;34.90
37868;DHT22;24011;48.880;9.190;2022-12-08T12:09:51;25.60;34.90
37868;DHT22;24011;48.880;9.190;2022-12-08T12:19:54;25.90;34.50
37868;DHT22;24011;48.880;9.190;2022-12-08T12:23:13;25.90;34.40
37868;DHT22;24011;48.880;9.190;2022-12-08T12:26:33;25.90;34.30
37868;DHT22;24011;48.880;9.190;2022-12-08T12:30:22;26.10;34.10
37868;DHT22;24011;48.880;9.190;2022-12-08T12:32:58;26.00;34.30
37868;DHT22;24011;48.880;9.190;2022-12-08T12:35:36;26.10;33.90
37868;DHT22;24011;48.880;9.190;2022-12-08T12:38:49;25.70;34.10
37868;DHT22;24011;48.880;9.190;2022-12-08T12:41:50;25.60;34.30
37868;DHT22;24011;48.880;9.190;2022-12-08T12:48:26;25.70;34.50
37868;DHT22;24011;48.880;9.190;2022-12-08T12:50:58;25.90;34.40
37868;DHT22;24011;48.880;9.190;2022-12-08T12:53:49;25.80;34.50
37868;DHT22;24011;48.880;9.190;2022-12-08T12:56:46;25.80;34.30
37868;DHT22;24011;48.880;9.190;2022-12-08T12:59:44;25.80;34.30
37868;DHT22;24011;48.880;9.190;2022-12-08T13:02:23;25.80;34.30
37868;DHT22;24011;48.880;9.190;2022-12-08T13:05:01;25.60;34.50
37868;DHT22;24011;48.880;9.190;2022-12-08T13:07:32;25.50;34.90
37868;DHT22;24011;48.880;9.190;2022-12-08T13:10:09;25.50;35.00
37868;DHT22;24011;48.880;9.190;2022-12-08T13:12:42;25.50;34.90
37868;DHT22;24011;48.880;9.190;2022-12-08T13:15:16;25.60;34.90
37868;DHT22;24011;48.880;9.190;2022-12-08T13:17:48;25.50;34.70
37868;DHT22;24011;48.880;9.190;2022-12-08T13:20:21;25.60;34.80
37868;DHT22;24011;48.880;9.190;2022-12-08T13:23:12;25.70;34.70
37868;DHT22;24011;48.880;9.190;2022-12-08T13:25:49;25.60;34.80
37868;DHT22;24011;48.880;9.190;2022-12-08T13:28:24;25.70;34.90
37868;DHT22;24011;48.880;9.190;2022-12-08T13:30:55;25.60;34.80
37868;DHT22;24011;48.880;9.190;2022-12-08T13:33:27;25.50;34.80
37868;DHT22;24011;48.880;9.190;2022-12-08T13:36:10;25.50;34.90
37868;DHT22;24011;48.880;9.190;2022-12-08T13:38:42;25.50;35.00
37868;DHT22;24011;48.880;9.190;2022-12-08T13:41:16;25.60;35.20
37868;DHT22;24011;48.880;9.190;2022-12-08T13:43:49;25.50;35.30
37868;DHT22;24011;48.880;9.190;2022-12-08T13:46:42;25.50;35.30
37868;DHT22;24011;48.880;9.190;2022-12-08T13:49:35;25.50;35.30
37868;DHT22;24011;48.880;9.190;2022-12-08T13:52:33;25.50;35.50
37868;DHT22;24011;48.880;9.190;2022-12-08T13:55:27;25.50;35.30
37868;DHT22;24011;48.880;9.190;2022-12-08T13:58:23;25.50;35.30
37868;DHT22;24011;48.880;9.190;2022-12-08T14:01:01;25.60;35.30
37868;DHT22;24011;48.880;9.190;2022-12-08T14:03:37;25.60;35.20
37868;DHT22;24011;48.880;9.190;2022-12-08T14:06:35;25.50;35.30
37868;DHT22;24011;48.880;9.190;2022-12-08T14:09:09;25.50;35.20
37868;DHT22;24011;48.880;9.190;2022-12-08T14:11:40;25.50;35.30
37868;DHT22;24011;48.880;9.190;2022-12-08T14:14:15;25.40;35.40
37868;DHT22;24011;48.880;9.190;2022-12-08T14:17:04;25.50;35.30
37868;DHT22;24011;48.880;9.190;2022-12-08T14:19:34;25.40;35.30
37868;DHT22;24011;48.880;9.190;2022-12-08T14:22:08;25.40;35.30
37868;DHT22;24011;48.880;9.190;2022-12-08T14:24:39;25.30;35.60
37868;DHT22;24011;48.880;9.190;2022-12-08T14:27:18;25.10;35.70
37868;DHT22;24011;48.880;9.190;2022-12-08T14:30:23;25.10;36.50
37868;DHT22;24011;48.880;9.190;2022-12-08T14:33:10;25.00;35.90
37868;DHT22;24011;48.880;9.190;2022-12-08T14:36:18;25.10;35.90
37868;DHT22;24011;48.880;9.190;2022-12-08T14:39:07;25.10;35.80
37868;DHT22;24011;48.880;9.190;2022-12-08T14:42:29;25.10;35.80
37868;DHT22;24011;48.880;9.190;2022-12-08T14:45:29;25.00;36.20
37868;DHT22;24011;48.880;9.190;2022-12-08T14:48:50;24.90;36.40
37868;DHT22;24011;48.880;9.190;2022-12-08T14:52:34;24.90;36.10
37868;DHT22;24011;48.880;9.190;2022-12-08T14:56:35;24.80;36.20
37868;DHT22;24011;48.880;9.190;2022-12-08T15:03:39;24.70;36.50
37868;DHT22;24011;48.880;9.190;2022-12-08T15:06:32;24.70;36.60
37868;DHT22;24011;48.880;9.190;2022-12-08T16:01:35;24.50;37.10
37868;DHT22;24011;48.880;9.190;2022-12-08T16:04:46;24.50;37.10
37868;DHT22;24011;48.880;9.190;2022-12-08T16:08:22;24.50;37.00
37868;DHT22;24011;48.880;9.190;2022-12-08T16:11:42;24.50;37.00
37868;DHT22;24011;48.880;9.190;2022-12-08T16:14:58;24.50;36.90
37868;DHT22;24011;48.880;9.190;2022-12-08T16:18:28;24.50;36.80
37868;DHT22;24011;48.880;9.190;2022-12-08T16:21:34;24.50;37.30
37868;DHT22;24011;48.880;9.190;2022-12-08T16:24:58;24.50;36.60
37868;DHT22;24011;48.880;9.190;2022-12-08T16:28:40;24.50;36.60
37868;DHT22;24011;48.880;9.190;2022-12-08T16:31:39;24.60;36.50
37868;DHT22;24011;48.880;9.190;2022-12-08T16:34:40;24.40;36.70
37868;DHT22;24011;48.880;9.190;2022-12-08T16:37:58;24.40;36.50
37868;DHT22;24011;48.880;9.190;2022-12-08T16:41:10;24.50;36.40
37868;DHT22;24011;48.880;9.190;2022-12-08T16:44:16;24.40;36.40
37868;DHT22;24011;48.880;9.190;2022-12-08T16:47:22;24.80;35.90
37868;DHT22;24011;48.880;9.190;2022-12-08T16:50:52;24.90;35.40
37868;DHT22;24011;48.880;9.190;2022-12-08T16:54:34;24.80;35.50
37868;DHT22;24011;48.880;9.190;2022-12-08T16:57:34;24.70;35.80
37868;DHT22;24011;48.880;9.190;2022-12-08T17:00:52;24.50;35.90
37868;DHT22;24011;48.880;9.190;2022-12-08T17:04:07;24.70;35.50
37868;DHT22;24011;48.880;9.190;2022-12-08T17:08:10;24.50;35.80
37868;DHT22;24011;48.880;9.190;2022-12-08T17:11:40;24.70;35.60
37868;DHT22;24011;48.880;9.190;2022-12-08T17:15:10;24.80;35.50
37868;DHT22;24011;48.880;9.190;2022-12-08T17:18:29;24.70;35.30
37868;DHT22;24011;48.880;9.190;2022-12-08T17:21:59;24.80;35.40
37868;DHT22;24011;48.880;9.190;2022-12-08T17:25:28;24.70;35.40
37868;DHT22;24011;48.880;9.190;2022-12-08T17:28:59;24.60;35.50
37868;DHT22;24011;48.880;9.190;2022-12-08T17:32:34;24.30;35.90
37868;DHT22;24011;48.880;9.190;2022-12-08T17:36:35;24.30;36.10
37868;DHT22;24011;48.880;9.190;2022-12-08T17:39:52;24.30;36.30
37868;DHT22;24011;48.880;9.190;2022-12-08T17:43:46;24.40;35.90
37868;DHT22;24011;48.880;9.190;2022-12-08T17:47:09;24.40;36.50
37868;DHT22;24011;48.880;9.190;2022-12-08T17:50:06;24.30;36.20
37868;DHT22;24011;48.880;9.190;2022-12-08T17:53:35;24.40;36.00
37868;DHT22;24011;48.880;9.190;2022-12-08T17:57:04;24.60;35.70
37868;DHT22;24011;48.880;9.190;2022-12-08T18:00:41;24.50;35.90
37868;DHT22;24011;48.880;9.190;2022-12-08T18:04:05;24.50;35.90
37868;DHT22;24011;48.880;9.190;2022-12-08T18:07:26;24.50;36.10
37868;DHT22;24011;48.880;9.190;2022-12-08T18:10:52;24.40;36.00
37868;DHT22;24011;48.880;9.190;2022-12-08T18:14:22;24.30;36.20
37868;DHT22;24011;48.880;9.190;2022-12-08T18:18:04;24.40;36.20
37868;DHT22;24011;48.880;9.190;2022-12-08T18:21:13;24.40;36.00
37868;DHT22;24011;48.880;9.190;2022-12-08T18:24:41;24.40;36.00
37868;DHT22;24011;48.880;9.190;2022-12-08T18:28:05;24.20;36.30
37868;DHT22;24011;48.880;9.190;2022-12-08T18:31:29;24.20;36.50
37868;DHT22;24011;48.880;9.190;2022-12-08T18:51:10;24.00;36.60
37868;DHT22;24011;48.880;9.190;2022-12-08T18:55:23;24.10;36.50
37868;DHT22;24011;48.880;9.190;2022-12-08T18:59:06;24.10;36.60
37868;DHT22;24011;48.880;9.190;2022-12-08T19:06:47;24.00;36.80
37868;DHT22;24011;48.880;9.190;2022-12-08T19:10:21;24.00;36.70
37868;DHT22;24011;48.880;9.190;2022-12-08T19:13:47;24.20;36.50
37868;DHT22;24011;48.880;9.190;2022-12-08T19:17:21;24.20;36.40
37868;DHT22;24011;48.880;9.190;2022-12-08T19:20:47;24.20;36.30
37868;DHT22;24011;48.880;9.190;2022-12-08T19:24:29;24.30;36.10
37868;DHT22;24011;48.880;9.190;2022-12-08T19:27:51;24.40;36.00
37868;DHT22;24011;48.880;9.190;2022-12-08T19:31:09;24.50;36.00
37868;DHT22;24011;48.880;9.190;2022-12-08T19:34:17;24.40;36.00
37868;DHT22;24011;48.880;9.190;2022-12-08T19:37:51;24.40;36.20
37868;DHT22;24011;48.880;9.190;2022-12-08T19:41:21;24.40;36.20
37868;DHT22;24011;48.880;9.190;2022-12-08T19:45:02;24.40;36.20
37868;DHT22;24011;48.880;9.190;2022-12-08T19:48:09;24.30;36.30
37868;DHT22;24011;48.880;9.190;2022-12-08T19:52:15;24.40;36.40
37868;DHT22;24011;48.880;9.190;2022-12-08T19:56:21;24.30;36.40
37868;DHT22;24011;48.880;9.190;2022-12-08T20:00:22;24.40;36.30
37868;DHT22;24011;48.880;9.190;2022-12-08T20:15:30;24.50;36.00
37868;DHT22;24011;48.880;9.190;2022-12-08T20:18:52;24.50;36.00
37868;DHT22;24011;48.880;9.190;2022-12-08T20:22:18;24.30;36.20
37868;DHT22;24011;48.880;9.190;2022-12-08T20:25:35;24.40;36.20
37868;DHT22;24011;48.880;9.190;2022-12-08T20:29:05;24.40;36.30
37868;DHT22;24011;48.880;9.190;2022-12-08T20:32:23;24.40;36.20
37868;DHT22;24011;48.880;9.190;2022-12-08T20:35:58;24.30;36.30
37868;DHT22;24011;48.880;9.190;2022-12-08T20:39:04;24.40;36.30
37868;DHT22;24011;48.880;9.190;2022-12-08T20:42:34;24.30;36.30
37868;DHT22;24011;48.880;9.190;2022-12-08T20:45:58;24.40;36.30
37868;DHT22;24011;48.880;9.190;2022-12-08T20:49:35;24.30;36.40
37868;DHT22;24011;48.880;9.190;2022-12-08T20:52:58;24.40;36.30
37868;DHT22;24011;48.880;9.190;2022-12-08T20:56:23;24.40;36.20
37868;DHT22;24011;48.880;9.190;2022-12-08T20:59:47;24.60;36.10
37868;DHT22;24011;48.880;9.190;2022-12-08T21:03:16;24.40;36.20
37868;DHT22;24011;48.880;9.190;2022-12-08T21:06:52;24.50;36.00
37868;DHT22;24011;48.880;9.190;2022-12-08T21:14:04;24.40;36.30
37868;DHT22;24011;48.880;9.190;2022-12-08T21:17:28;24.40;36.40
37868;DHT22;24011;48.880;9.190;2022-12-08T21:21:06;24.30;36.40
37868;DHT22;24011;48.880;9.190;2022-12-08T21:24:52;24.40;36.40
37868;DHT22;24011;48.880;9.190;2022-12-08T21:28:16;24.40;36.50
37868;DHT22;24011;48.880;9.190;2022-12-08T21:31:40;24.50;36.20
37868;DHT22;24011;48.880;9.190;2022-12-08T21:35:04;24.50;36.10
37868;DHT22;24011;48.880;9.190;2022-12-08T21:38:34;24.50;36.20
37868;DHT22;24011;48.880;9.190;2022-12-08T21:42:04;24.50;36.30
37868;DHT22;24011;48.880;9.190;2022-12-08T21:45:40;24.50;36.20
37868;DHT22;24011;48.880;9.190;2022-12-08T21:49:06;24.40;36.50
37868;DHT22;24011;48.880;9.190;2022-12-08T21:52:41;24.40;36.40
37868;DHT22;24011;48.880;9.190;2022-12-08T21:56:24;24.40;36.40
37868;DHT22;24011;48.880;9.190;2022-12-08T22:00:05;24.40;36.30
37868;DHT22;24011;48.880;9.190;2022-12-08T22:03:24;24.40;36.70
37868;DHT22;24011;48.880;9.190;2022-12-08T22:06:41;24.40;36.60
37868;DHT22;24011;48.880;9.190;2022-12-08T22:10:06;24.40;36.50
37868;DHT22;24011;48.880;9.190;2022-12-08T22:13:36;24.40;36.40
37868;DHT22;24011;48.880;9.190;2022-12-08T22:17:11;24.40;36.60
37868;DHT22;24011;48.880;9.190;2022-12-08T22:20:41;24.50;36.40
37868;DHT22;24011;48.880;9.190;2022-12-08T22:24:06;24.40;36.60
37868;DHT22;24011;48.880;9.190;2022-12-08T22:27:41;24.40;36.30
37868;DHT22;24011;48.880;9.190;2022-12-08T22:31:18;24.40;36.50
37868;DHT22;24011;48.880;9.190;2022-12-08T22:34:55;24.40;36.30
37868;DHT22;24011;48.880;9.190;2022-12-08T22:38:18;24.40;36.60
37868;DHT22;24011;48.880;9.190;2022-12-08T22:41:48;24.30;36.50
37868;DHT22;24011;48.880;9.190;2022-12-08T22:45:11;24.20;36.70
37868;DHT22;24011;48.880;9.190;2022-12-08T22:48:17;24.40;36.50
37868;DHT22;24011;48.880;9.190;2022-12-08T22:51:53;24.40;36.60
37868;DHT22;24011;48.880;9.190;2022-12-08T22:55:18;24.40;36.60
37868;DHT22;24011;48.880;9.190;2022-12-08T22:58:42;24.30;36.60
37868;DHT22;24011;48.880;9.190;2022-12-08T23:02:12;24.30;36.70
37868;DHT22;24011;48.880;9.190;2022-12-08T23:10:00;24.40;36.50
37868;DHT22;24011;48.880;9.190;2022-12-08T23:13:24;24.30;36.60
37868;DHT22;24011;48.880;9.190;2022-12-08T23:17:18;24.20;36.70
37868;DHT22;24011;48.880;9.190;2022-12-08T23:20:54;24.30;36.70
37868;DHT22;24011;48.880;9.190;2022-12-08T23:24:31;24.30;36.70
37868;DHT22;24011;48.880;9.190;2022-12-08T23:28:13;24.30;36.60
37868;DHT22;24011;48.880;9.190;2022-12-08T23:32:07;24.20;36.90
37868;DHT22;24011;48.880;9.190;2022-12-08T23:35:30;24.30;36.80
37868;DHT22;24011;48.880;9.190;2022-12-08T23:38:49;24.30;36.70
37868;DHT22;24011;48.880;9.190;2022-12-08T23:42:19;24.30;36.70
37868;DHT22;24011;48.880;9.190;2022-12-08T23:46:01;24.30;36.70
37868;DHT22;24011;48.880;9.190;2022-12-08T23:49:25;24.30;36.60
37868;DHT22;24011;48.880;9.190;2022-12-08T23:53:01;24.30;36.60
37868;DHT22;24011;48.880;9.190;2022-12-08T23:56:37;24.30;36.50
